KBGE/BGE METAR and TAF weather

Enter ICAO airport designator
Station Type Date Time Source
KBGE METAR 2022/12/04 11:15 UTC NOAA

KBGE 041115Z AUTO 04003KT 5SM BR BKN003 OVC006 18/18 A3021 RMK AO2 T01820180


Station Type Date Time Source
KBGE Decoded METAR 2022/12/04 11:15 UTC NOAA

Bainbridge, Decatur County Industrial Air Park Airport, GA, United States (KBGE) 30-58N 084-38W
Dec 04, 2022 - 06:15 AM EST / 2022.12.04 1115 UTC
Wind: from the NE (040 degrees) at 3 MPH (3 KT):0
Visibility: 5 mile(s):0
Sky conditions: overcast
Weather: mist
Temperature: 64.8 F (18.2 C)
Dew Point: 64.4 F (18.0 C)
Relative Humidity: 98%
Pressure (altimeter): 30.21 in. Hg (1023 hPa)
ob: KBGE 041115Z AUTO 04003KT 5SM BR BKN003 OVC006 18/18 A3021 RMK AO2 T01820180
cycle: 11

Station Type Date Time Source
KBGE TAF UTC NOAA

Error!

Example: see airport list